createdAt,value
2023-05-24T00:01:16.463Z,9.25
2023-05-24T00:02:20.018Z,9.25
2023-05-24T00:03:57.311Z,9.19
2023-05-24T00:05:01.950Z,9.19
2023-05-24T00:06:05.348Z,9.19
2023-05-24T00:07:40.898Z,9.13
2023-05-24T00:08:44.300Z,9.13
2023-05-24T00:09:47.922Z,9.13
2023-05-24T00:11:23.421Z,9.13
2023-05-24T00:12:26.794Z,9.13
2023-05-24T00:13:30.316Z,9.13
2023-05-24T00:15:05.568Z,9.06
2023-05-24T00:16:08.942Z,9.06
2023-05-24T00:17:12.952Z,9.06
2023-05-24T00:18:48.708Z,8.94
2023-05-24T00:19:52.328Z,8.94
2023-05-24T00:20:59.479Z,8.94
2023-05-24T00:22:35.200Z,8.88
2023-05-24T00:23:38.768Z,8.88
2023-05-24T00:24:42.434Z,8.88
2023-05-24T00:26:18.036Z,8.88
2023-05-24T00:27:21.426Z,8.88
2023-05-24T00:28:24.720Z,8.81
2023-05-24T00:29:59.999Z,8.81
2023-05-24T00:31:03.404Z,8.81
2023-05-24T00:32:07.436Z,8.75
2023-05-24T00:33:43.491Z,8.75
2023-05-24T00:34:46.829Z,8.75
2023-05-24T00:35:50.278Z,8.69
2023-05-24T00:37:25.944Z,8.69
2023-05-24T00:38:29.273Z,8.69
2023-05-24T00:39:32.935Z,8.69
2023-05-24T00:41:08.343Z,8.63
2023-05-24T00:42:11.910Z,8.63
2023-05-24T00:43:15.653Z,8.63
2023-05-24T00:44:51.332Z,8.63
2023-05-24T00:45:54.876Z,8.63
2023-05-24T00:46:58.653Z,8.63
2023-05-24T00:48:34.148Z,8.56
2023-05-24T00:49:37.794Z,8.56
2023-05-24T00:50:41.941Z,8.56
2023-05-24T00:52:17.660Z,8.56
2023-05-24T00:53:21.269Z,8.50
2023-05-24T00:54:24.816Z,8.50
2023-05-24T00:56:00.441Z,8.50
2023-05-24T00:57:04.012Z,8.44
2023-05-24T00:58:07.670Z,8.44
2023-05-24T00:59:43.281Z,8.44
2023-05-24T01:00:12.510Z,8.38
2023-05-24T01:01:16.093Z,8.38
2023-05-24T01:02:20.343Z,8.38
2023-05-24T01:03:57.095Z,8.38
2023-05-24T01:05:00.919Z,8.38
2023-05-24T01:06:04.402Z,8.31
2023-05-24T01:07:40.187Z,8.31
2023-05-24T01:08:43.592Z,8.31
2023-05-24T01:09:46.982Z,8.31
2023-05-24T01:11:22.781Z,8.31
2023-05-24T01:12:26.362Z,8.31
2023-05-24T01:13:30.035Z,8.25
2023-05-24T01:15:05.910Z,8.25
2023-05-24T01:16:09.555Z,8.25
2023-05-24T01:17:13.953Z,8.25
2023-05-24T01:18:50.007Z,8.25
2023-05-24T01:19:53.567Z,8.25
2023-05-24T01:20:57.254Z,8.25
2023-05-24T01:22:32.792Z,8.25
2023-05-24T01:23:36.154Z,8.25
2023-05-24T01:24:39.806Z,8.25
2023-05-24T01:26:15.650Z,8.25
2023-05-24T01:27:19.095Z,8.19
2023-05-24T01:28:22.673Z,8.25
2023-05-24T01:29:58.527Z,8.19
2023-05-24T01:31:02.312Z,8.19
2023-05-24T01:32:06.477Z,8.19
2023-05-24T01:33:42.618Z,8.19
2023-05-24T01:34:46.332Z,8.19
2023-05-24T01:35:49.927Z,8.13
2023-05-24T01:37:25.642Z,8.13
2023-05-24T01:38:29.280Z,8.13
2023-05-24T01:39:32.726Z,8.06
2023-05-24T01:41:08.242Z,8.06
2023-05-24T01:42:11.744Z,8.06
2023-05-24T01:43:15.206Z,8.06
2023-05-24T01:44:50.971Z,8.00
2023-05-24T01:45:54.638Z,8.00
2023-05-24T01:46:58.371Z,8.00
2023-05-24T01:48:34.735Z,8.00
2023-05-24T01:49:38.386Z,8.00
2023-05-24T01:50:42.228Z,8.00
2023-05-24T01:52:18.159Z,7.94
2023-05-24T01:53:21.968Z,7.94
2023-05-24T01:54:25.550Z,7.94
2023-05-24T01:56:01.115Z,7.94
2023-05-24T01:57:04.601Z,7.94
2023-05-24T01:58:08.232Z,7.94
2023-05-24T01:59:44.093Z,7.88
2023-05-24T02:00:12.353Z,7.88
2023-05-24T02:01:15.769Z,7.88
2023-05-24T02:02:19.699Z,7.88
2023-05-24T02:03:56.401Z,7.88
2023-05-24T02:04:59.987Z,7.88
2023-05-24T02:06:03.708Z,7.88
2023-05-24T02:07:39.689Z,7.81
2023-05-24T02:08:43.126Z,7.81
2023-05-24T02:09:46.950Z,7.81
2023-05-24T02:11:22.544Z,7.81
2023-05-24T02:12:26.087Z,7.75
2023-05-24T02:13:29.646Z,7.75
2023-05-24T02:15:05.437Z,7.69
2023-05-24T02:16:09.160Z,7.63
2023-05-24T02:17:13.154Z,7.56
2023-05-24T02:18:49.125Z,7.56
2023-05-24T02:19:52.836Z,7.56
2023-05-24T02:20:56.975Z,7.56
2023-05-24T02:22:33.109Z,7.63
2023-05-24T02:23:36.655Z,7.63
2023-05-24T02:24:40.451Z,7.63
2023-05-24T02:26:16.332Z,7.63
2023-05-24T02:27:19.834Z,7.63
2023-05-24T02:28:23.416Z,7.63
2023-05-24T02:29:59.208Z,7.63
2023-05-24T02:31:02.810Z,7.63
2023-05-24T02:32:06.821Z,7.69
2023-05-24T02:33:42.729Z,7.69
2023-05-24T02:34:46.215Z,7.69
2023-05-24T02:35:49.793Z,7.69
2023-05-24T02:37:25.529Z,7.75
2023-05-24T02:38:29.166Z,7.75
2023-05-24T02:39:32.721Z,7.75
2023-05-24T02:41:08.334Z,7.75
2023-05-24T02:42:11.955Z,7.75
2023-05-24T02:43:15.591Z,7.75
2023-05-24T02:44:51.397Z,7.75
2023-05-24T02:45:54.935Z,7.75
2023-05-24T02:46:58.898Z,7.75
2023-05-24T02:48:34.740Z,7.81
2023-05-24T02:49:38.354Z,7.81
2023-05-24T02:50:41.989Z,7.81
2023-05-24T02:52:17.933Z,7.88
2023-05-24T02:53:21.625Z,7.88
2023-05-24T02:54:25.262Z,7.88
2023-05-24T02:56:01.150Z,7.94
2023-05-24T02:57:04.781Z,7.94
2023-05-24T02:58:08.406Z,7.94
2023-05-24T02:59:44.159Z,8.00
2023-05-24T03:00:12.064Z,8.00
2023-05-24T03:01:15.296Z,8.00
2023-05-24T03:02:19.093Z,8.00
2023-05-24T03:03:55.761Z,8.00
2023-05-24T03:04:59.562Z,8.06
2023-05-24T03:06:03.029Z,8.06
2023-05-24T03:07:38.776Z,8.00
2023-05-24T03:08:42.270Z,8.00
2023-05-24T03:09:46.074Z,8.00
2023-05-24T03:11:23.231Z,8.00
2023-05-24T03:12:26.869Z,8.00
2023-05-24T03:13:30.331Z,8.00
2023-05-24T03:15:06.056Z,8.00
2023-05-24T03:16:09.702Z,8.00
2023-05-24T03:17:13.838Z,8.00
2023-05-24T03:18:49.831Z,8.00
2023-05-24T03:19:56.417Z,8.00
2023-05-24T03:21:00.324Z,8.00
2023-05-24T03:22:36.415Z,8.00
2023-05-24T03:23:39.961Z,8.00
2023-05-24T03:24:43.421Z,8.00
2023-05-24T03:26:19.283Z,8.00
2023-05-24T03:27:23.160Z,8.00
2023-05-24T03:28:26.723Z,8.00
2023-05-24T03:30:02.532Z,8.00
2023-05-24T03:31:06.345Z,8.00
2023-05-24T03:32:09.996Z,8.00
2023-05-24T03:33:45.817Z,8.00
2023-05-24T03:34:49.310Z,8.00
2023-05-24T03:35:53.049Z,8.00
2023-05-24T03:37:28.573Z,8.00
2023-05-24T03:38:32.006Z,8.00
2023-05-24T03:39:35.439Z,8.06
2023-05-24T03:41:11.242Z,8.06
2023-05-24T03:42:14.978Z,8.06
2023-05-24T03:43:18.694Z,8.06
2023-05-24T03:44:54.735Z,8.06
2023-05-24T03:46:15.884Z,8.06
2023-05-24T03:47:19.936Z,8.06
2023-05-24T03:48:55.807Z,8.13
2023-05-24T03:49:59.435Z,8.13
2023-05-24T03:51:03.183Z,8.13
2023-05-24T03:52:38.699Z,8.19
2023-05-24T03:53:42.225Z,8.19
2023-05-24T03:54:45.830Z,8.19
2023-05-24T03:56:21.592Z,8.19
2023-05-24T03:57:25.057Z,8.19
2023-05-24T03:58:28.493Z,8.25
2023-05-24T04:00:12.685Z,8.25
2023-05-24T04:01:32.140Z,8.31
2023-05-24T04:02:36.874Z,8.31
2023-05-24T04:04:13.870Z,8.31
2023-05-24T04:05:43.081Z,8.25
2023-05-24T04:06:46.878Z,8.25
2023-05-24T04:07:50.807Z,8.25
2023-05-24T04:09:27.155Z,8.31
2023-05-24T04:10:30.989Z,8.31
2023-05-24T04:11:35.363Z,8.31
2023-05-24T04:13:11.588Z,8.31
2023-05-24T04:14:15.265Z,8.31
2023-05-24T04:15:18.873Z,8.31
2023-05-24T04:16:55.113Z,8.31
2023-05-24T04:18:00.309Z,8.31
2023-05-24T04:19:05.343Z,8.31
2023-05-24T04:20:41.959Z,8.31
2023-05-24T04:21:45.923Z,8.31
2023-05-24T04:22:49.508Z,8.31
2023-05-24T04:24:25.395Z,8.31
2023-05-24T04:25:29.619Z,8.38
2023-05-24T04:26:33.185Z,8.31
2023-05-24T04:28:09.109Z,8.38
2023-05-24T04:29:12.767Z,8.38
2023-05-24T04:30:16.491Z,8.38
2023-05-24T04:31:52.858Z,8.38
2023-05-24T04:32:56.705Z,8.38
2023-05-24T04:34:00.910Z,8.38
2023-05-24T04:35:36.859Z,8.38
2023-05-24T04:36:40.663Z,8.44
2023-05-24T04:37:44.756Z,8.44
2023-05-24T04:39:20.878Z,8.44
2023-05-24T04:40:24.684Z,8.44
2023-05-24T04:41:28.958Z,8.44
2023-05-24T04:43:04.957Z,8.50
2023-05-24T04:44:08.677Z,8.50
2023-05-24T04:45:12.395Z,8.50
2023-05-24T04:46:48.645Z,8.50
2023-05-24T04:47:52.983Z,8.56
2023-05-24T04:48:56.972Z,8.50
2023-05-24T04:50:32.860Z,8.56
2023-05-24T04:51:37.151Z,8.56
2023-05-24T04:52:41.947Z,8.56
2023-05-24T04:54:18.131Z,8.56
2023-05-24T04:55:21.842Z,8.56
2023-05-24T04:56:25.595Z,8.63
2023-05-24T04:58:01.666Z,8.63
2023-05-24T04:59:05.340Z,8.63
2023-05-24T05:00:12.220Z,8.63
2023-05-24T05:01:16.555Z,8.69
2023-05-24T05:02:20.839Z,8.69
2023-05-24T05:03:57.721Z,8.69
2023-05-24T05:05:01.900Z,8.75
2023-05-24T05:06:05.694Z,8.75
2023-05-24T05:07:41.750Z,8.75
2023-05-24T05:08:45.392Z,8.75
2023-05-24T05:09:49.311Z,8.81
2023-05-24T05:11:25.253Z,8.81
2023-05-24T05:12:28.881Z,8.81
2023-05-24T05:13:32.738Z,8.88
2023-05-24T05:15:08.666Z,8.88
2023-05-24T05:16:12.738Z,8.88
2023-05-24T05:17:16.773Z,8.94
2023-05-24T05:18:52.924Z,9.00
2023-05-24T05:19:56.629Z,9.00
2023-05-24T05:21:01.099Z,9.06
2023-05-24T05:22:37.185Z,9.13
2023-05-24T05:23:40.814Z,9.19
2023-05-24T05:24:44.634Z,9.19
2023-05-24T05:26:20.763Z,9.25
2023-05-24T05:27:24.478Z,9.31
2023-05-24T05:28:28.209Z,9.31
2023-05-24T05:30:04.073Z,9.38
2023-05-24T05:31:07.867Z,9.44
2023-05-24T05:32:11.639Z,9.44
2023-05-24T05:33:48.490Z,9.56
2023-05-24T05:34:52.283Z,9.56
2023-05-24T05:35:55.985Z,9.63
2023-05-24T05:37:32.080Z,9.75
2023-05-24T05:38:35.856Z,9.81
2023-05-24T05:39:39.466Z,9.88
2023-05-24T05:41:15.745Z,10.06
2023-05-24T05:42:21.354Z,10.13
2023-05-24T05:43:25.037Z,10.31
2023-05-24T05:45:00.956Z,10.38
2023-05-24T05:46:04.910Z,10.50
2023-05-24T05:47:09.027Z,10.50
2023-05-24T05:48:46.324Z,10.63
2023-05-24T05:49:50.233Z,10.69
2023-05-24T05:50:54.317Z,10.75
2023-05-24T05:52:30.356Z,10.81
2023-05-24T05:53:33.818Z,10.88
2023-05-24T05:54:37.591Z,10.88
2023-05-24T05:56:13.495Z,10.94
2023-05-24T05:57:17.195Z,11.06
2023-05-24T05:58:21.110Z,11.13
2023-05-24T05:59:57.098Z,11.19
2023-05-24T06:00:12.828Z,11.19
2023-05-24T06:01:16.731Z,11.31
2023-05-24T06:02:20.513Z,11.44
2023-05-24T06:03:57.651Z,11.56
2023-05-24T06:05:02.272Z,11.63
2023-05-24T06:06:08.553Z,11.69
2023-05-24T06:07:44.685Z,11.81
2023-05-24T06:08:48.550Z,11.88
2023-05-24T06:09:52.255Z,11.94
2023-05-24T06:11:28.266Z,12.13
2023-05-24T06:12:32.059Z,12.13
2023-05-24T06:13:35.837Z,12.19
2023-05-24T06:15:11.833Z,12.13
2023-05-24T06:16:15.745Z,12.06
2023-05-24T06:17:20.089Z,12.06
2023-05-24T06:19:05.459Z,12.00
2023-05-24T06:20:10.444Z,12.13
2023-05-24T06:21:14.860Z,12.19
2023-05-24T06:22:50.894Z,12.19
2023-05-24T06:23:54.697Z,12.13
2023-05-24T06:24:58.432Z,12.06
2023-05-24T06:26:34.563Z,11.94
2023-05-24T06:27:40.701Z,11.88
2023-05-24T06:28:44.638Z,11.88
2023-05-24T06:30:20.711Z,11.75
2023-05-24T06:31:25.608Z,11.69
2023-05-24T06:32:30.127Z,11.69
2023-05-24T06:34:06.641Z,11.75
2023-05-24T06:35:10.438Z,11.81
2023-05-24T06:36:14.130Z,11.75
2023-05-24T06:37:50.456Z,11.88
2023-05-24T06:38:54.478Z,11.94
2023-05-24T06:39:58.085Z,12.06
2023-05-24T06:41:34.417Z,12.31
2023-05-24T06:42:38.142Z,12.38
2023-05-24T06:43:42.119Z,12.69
2023-05-24T06:45:18.181Z,12.69
2023-05-24T06:46:22.007Z,12.75
2023-05-24T06:47:26.099Z,12.81
2023-05-24T06:49:03.096Z,12.88
2023-05-24T06:50:07.143Z,12.94
2023-05-24T06:51:11.015Z,13.06
2023-05-24T06:52:47.272Z,13.13
2023-05-24T06:53:51.108Z,13.13
2023-05-24T06:54:54.795Z,13.13
2023-05-24T06:56:32.773Z,13.19
2023-05-24T06:57:36.565Z,13.19
2023-05-24T06:58:40.369Z,13.25
2023-05-24T07:00:12.453Z,13.38
2023-05-24T07:01:16.167Z,13.38
2023-05-24T07:02:20.330Z,13.31
2023-05-24T07:03:56.887Z,13.19
2023-05-24T07:05:00.987Z,13.19
2023-05-24T07:06:05.117Z,13.13
2023-05-24T07:07:41.015Z,13.13
2023-05-24T07:08:44.881Z,13.13
2023-05-24T07:09:48.652Z,13.00
2023-05-24T07:11:24.444Z,13.00
2023-05-24T07:12:28.601Z,13.00
2023-05-24T07:13:32.214Z,12.94
2023-05-24T07:15:08.151Z,12.88
2023-05-24T07:16:11.918Z,12.88
2023-05-24T07:17:16.185Z,12.94
2023-05-24T07:18:52.618Z,12.94
2023-05-24T07:19:57.482Z,12.88
2023-05-24T07:21:01.709Z,12.81
2023-05-24T07:22:37.818Z,12.75
2023-05-24T07:23:41.550Z,12.75
2023-05-24T07:24:45.184Z,12.75
2023-05-24T07:26:21.218Z,12.81
2023-05-24T07:27:25.156Z,12.88
2023-05-24T07:28:28.877Z,12.88
2023-05-24T07:30:05.681Z,12.88
2023-05-24T07:31:29.424Z,12.94
2023-05-24T07:32:33.458Z,12.94
2023-05-24T07:34:10.262Z,12.81
2023-05-24T07:35:14.232Z,12.69
2023-05-24T07:36:18.190Z,12.69
2023-05-24T07:37:58.719Z,12.69
2023-05-24T07:39:02.385Z,12.69
2023-05-24T07:40:06.148Z,12.75
2023-05-24T07:41:42.242Z,12.75
2023-05-24T07:42:46.269Z,12.75
2023-05-24T07:43:50.952Z,12.75
2023-05-24T07:45:27.010Z,12.88
2023-05-24T07:46:31.349Z,12.94
2023-05-24T07:47:35.564Z,13.00
2023-05-24T07:49:15.923Z,13.06
2023-05-24T07:50:19.593Z,13.06
2023-05-24T07:51:23.854Z,13.06
2023-05-24T07:53:00.315Z,13.06
2023-05-24T07:54:03.982Z,13.19
2023-05-24T07:55:07.537Z,13.25
2023-05-24T07:56:43.511Z,13.19
2023-05-24T07:57:50.460Z,13.19
2023-05-24T07:58:54.274Z,13.13
2023-05-24T08:00:12.354Z,13.19
2023-05-24T08:01:16.262Z,13.25
2023-05-24T08:02:20.098Z,13.31
2023-05-24T08:03:56.810Z,13.44
2023-05-24T08:05:00.863Z,13.50
2023-05-24T08:06:04.826Z,13.56
2023-05-24T08:07:44.558Z,13.69
2023-05-24T08:08:48.401Z,13.69
2023-05-24T08:09:52.092Z,13.75
2023-05-24T08:11:28.186Z,13.88
2023-05-24T08:12:31.941Z,13.88
2023-05-24T08:13:35.715Z,13.88
2023-05-24T08:15:11.917Z,13.81
2023-05-24T08:16:15.789Z,13.75
2023-05-24T08:17:20.006Z,13.69
2023-05-24T08:18:56.488Z,13.63
2023-05-24T08:20:00.523Z,13.63
2023-05-24T08:21:05.832Z,13.63
2023-05-24T08:22:41.940Z,13.69
2023-05-24T08:23:45.734Z,13.75
2023-05-24T08:24:50.455Z,13.75
2023-05-24T08:26:26.539Z,13.88
2023-05-24T08:27:30.558Z,13.88
2023-05-24T08:28:34.506Z,13.88
2023-05-24T08:30:10.677Z,13.94
2023-05-24T08:31:14.763Z,13.94
2023-05-24T08:32:21.185Z,13.88
2023-05-24T08:33:57.502Z,13.81
2023-05-24T08:35:18.662Z,13.75
2023-05-24T08:36:24.959Z,13.75
2023-05-24T08:38:00.916Z,13.75
2023-05-24T08:39:04.800Z,13.81
2023-05-24T08:40:08.454Z,13.81
2023-05-24T08:41:51.601Z,13.81
2023-05-24T08:43:04.234Z,13.81
2023-05-24T08:44:08.172Z,13.81
2023-05-24T08:45:44.743Z,13.75
2023-05-24T08:46:49.117Z,13.69
2023-05-24T08:47:53.174Z,13.69
2023-05-24T08:49:32.941Z,13.56
2023-05-24T08:50:37.620Z,13.50
2023-05-24T08:51:41.381Z,13.44
2023-05-24T08:53:17.434Z,13.50
2023-05-24T08:54:21.324Z,13.50
2023-05-24T08:55:25.205Z,13.56
2023-05-24T08:57:04.159Z,13.63
2023-05-24T08:58:08.052Z,13.69
2023-05-24T08:59:11.911Z,13.69
2023-05-24T09:00:12.145Z,13.69
2023-05-24T09:01:15.915Z,13.69
2023-05-24T09:02:23.651Z,13.69
2023-05-24T09:03:59.853Z,13.75
2023-05-24T09:05:04.228Z,13.81
2023-05-24T09:06:07.868Z,13.88
2023-05-24T09:07:43.892Z,13.94
2023-05-24T09:08:47.754Z,13.94
2023-05-24T09:09:51.452Z,13.94
2023-05-24T09:11:30.877Z,14.00
2023-05-24T09:12:38.970Z,14.00
2023-05-24T09:13:43.318Z,14.06
2023-05-24T09:15:18.956Z,14.13
2023-05-24T09:16:23.149Z,14.19
2023-05-24T09:17:27.293Z,14.31
2023-05-24T09:19:04.180Z,14.50
2023-05-24T09:20:07.780Z,14.50
2023-05-24T09:21:12.048Z,14.56
2023-05-24T09:22:47.578Z,14.50
2023-05-24T09:23:51.278Z,14.50
2023-05-24T09:24:54.971Z,14.38
2023-05-24T09:26:30.807Z,14.38
2023-05-24T09:27:34.302Z,14.44
2023-05-24T09:28:41.138Z,14.50
2023-05-24T09:30:17.087Z,14.69
2023-05-24T09:31:21.180Z,14.81
2023-05-24T09:32:25.350Z,15.00
2023-05-24T09:34:01.554Z,15.13
2023-05-24T09:35:05.089Z,15.13
2023-05-24T09:36:09.078Z,15.13
2023-05-24T09:37:44.696Z,15.31
2023-05-24T09:38:48.234Z,15.44
2023-05-24T09:39:51.830Z,15.63
2023-05-24T09:41:27.951Z,15.75
2023-05-24T09:42:31.533Z,15.88
2023-05-24T09:43:35.198Z,15.94
2023-05-24T09:45:11.023Z,16.00
2023-05-24T09:46:14.723Z,16.00
2023-05-24T09:47:18.991Z,16.06
2023-05-24T09:48:54.948Z,16.06
2023-05-24T09:49:58.565Z,16.06
2023-05-24T09:51:02.308Z,16.31
2023-05-24T09:52:38.683Z,16.50
2023-05-24T09:53:42.157Z,16.56
2023-05-24T09:54:45.865Z,16.81
2023-05-24T09:56:21.471Z,16.94
2023-05-24T09:57:25.269Z,17.19
2023-05-24T09:58:28.924Z,17.19
2023-05-24T10:00:12.615Z,17.06
2023-05-24T10:01:17.356Z,17.00
2023-05-24T10:02:22.415Z,17.00
2023-05-24T10:04:19.065Z,17.00
2023-05-24T10:05:23.316Z,17.00
2023-05-24T10:06:26.923Z,17.00
2023-05-24T10:08:02.820Z,16.94
2023-05-24T10:09:06.219Z,16.88
2023-05-24T10:10:09.708Z,16.88
2023-05-24T10:11:45.698Z,16.81
2023-05-24T10:12:49.337Z,16.88
2023-05-24T10:13:52.868Z,16.88
2023-05-24T10:15:28.620Z,16.88
2023-05-24T10:16:31.967Z,16.94
2023-05-24T10:17:36.354Z,16.88
2023-05-24T10:19:12.708Z,16.88
2023-05-24T10:20:16.365Z,17.00
2023-05-24T10:21:21.122Z,17.00
2023-05-24T10:22:57.302Z,17.00
2023-05-24T10:24:00.671Z,17.06
2023-05-24T10:25:06.892Z,17.06
2023-05-24T10:26:42.700Z,17.00
2023-05-24T10:27:46.604Z,16.94
2023-05-24T10:28:50.182Z,16.94
2023-05-24T10:30:26.198Z,16.88
2023-05-24T10:31:30.792Z,16.75
2023-05-24T10:32:35.160Z,16.69
2023-05-24T10:34:11.435Z,16.69
2023-05-24T10:35:15.117Z,16.75
2023-05-24T10:36:19.127Z,16.88
2023-05-24T10:37:54.888Z,17.00
2023-05-24T10:38:58.527Z,17.13
2023-05-24T10:40:02.344Z,17.19
2023-05-24T10:41:38.464Z,17.06
2023-05-24T10:42:45.051Z,17.00
2023-05-24T10:44:00.835Z,16.94
2023-05-24T10:45:44.191Z,16.81
2023-05-24T10:46:48.089Z,17.00
2023-05-24T10:47:51.796Z,17.13
2023-05-24T10:49:27.980Z,17.31
2023-05-24T10:50:31.290Z,17.38
2023-05-24T10:51:35.634Z,17.31
2023-05-24T10:53:11.593Z,17.19
2023-05-24T10:54:15.430Z,17.13
2023-05-24T10:55:39.082Z,17.13
2023-05-24T10:57:14.992Z,17.00
2023-05-24T10:58:19.049Z,17.00
2023-05-24T10:59:22.947Z,17.13
2023-05-24T11:01:28.263Z,17.13
2023-05-24T11:02:32.339Z,17.13
2023-05-24T11:04:08.123Z,17.19
2023-05-24T11:05:11.847Z,17.25
2023-05-24T11:06:15.951Z,17.25
2023-05-24T11:07:51.757Z,17.50
2023-05-24T11:08:55.271Z,17.63
2023-05-24T11:09:58.893Z,17.81
2023-05-24T11:11:50.261Z,18.06
2023-05-24T11:12:54.346Z,18.19
2023-05-24T11:13:58.242Z,18.44
2023-05-24T11:15:34.086Z,18.63
2023-05-24T11:16:38.537Z,18.94
2023-05-24T11:17:43.810Z,18.94
2023-05-24T11:19:20.230Z,18.75
2023-05-24T11:20:23.883Z,18.69
2023-05-24T11:21:28.844Z,18.44
2023-05-24T11:23:04.717Z,18.19
2023-05-24T11:24:11.041Z,17.94
2023-05-24T11:25:14.706Z,17.81
2023-05-24T11:26:50.941Z,17.69
2023-05-24T11:27:54.699Z,17.69
2023-05-24T11:28:58.652Z,17.69
2023-05-24T11:30:36.195Z,17.81
2023-05-24T11:31:43.201Z,17.81
2023-05-24T11:32:48.409Z,17.88
2023-05-24T11:34:24.668Z,17.75
2023-05-24T11:35:28.511Z,17.69
2023-05-24T11:36:32.170Z,17.63
2023-05-24T11:38:24.196Z,17.56
2023-05-24T11:39:28.721Z,17.75
2023-05-24T11:40:32.366Z,17.81
2023-05-24T11:42:08.395Z,17.94
2023-05-24T11:43:13.544Z,18.00
2023-05-24T11:44:18.366Z,17.94
2023-05-24T11:45:54.164Z,17.88
2023-05-24T11:46:58.306Z,17.88
2023-05-24T11:48:02.312Z,17.75
2023-05-24T11:49:39.627Z,17.56
2023-05-24T11:51:50.622Z,17.25
2023-05-24T11:53:26.491Z,17.13
2023-05-24T11:54:33.095Z,17.13
2023-05-24T11:55:36.957Z,17.00
2023-05-24T11:57:13.338Z,17.00
2023-05-24T11:58:17.112Z,17.06
2023-05-24T11:59:20.741Z,17.25
2023-05-24T12:01:16.289Z,17.50
2023-05-24T12:02:20.302Z,17.63
2023-05-24T12:03:57.562Z,17.88
2023-05-24T12:05:02.504Z,17.94
2023-05-24T12:06:06.640Z,18.06
2023-05-24T12:07:42.832Z,17.94
2023-05-24T12:08:47.736Z,17.94
2023-05-24T12:09:51.703Z,18.00
2023-05-24T12:11:30.397Z,18.06
2023-05-24T12:12:45.375Z,18.06
2023-05-24T12:13:50.077Z,18.19
2023-05-24T12:15:25.998Z,18.38
2023-05-24T12:16:32.914Z,18.56
2023-05-24T12:17:37.066Z,18.69
2023-05-24T12:19:33.104Z,18.69
2023-05-24T12:20:38.169Z,18.75
2023-05-24T12:21:43.058Z,18.81
2023-05-24T12:23:20.394Z,18.69
2023-05-24T12:24:24.557Z,18.63
2023-05-24T12:25:28.228Z,18.50
2023-05-24T12:27:04.402Z,18.44
2023-05-24T12:28:08.403Z,18.38
2023-05-24T12:29:11.967Z,18.38
2023-05-24T12:30:49.529Z,18.31
2023-05-24T12:31:54.302Z,18.06
2023-05-24T12:32:58.082Z,17.88
2023-05-24T12:34:34.653Z,17.50
2023-05-24T12:35:38.426Z,17.38
2023-05-24T12:36:42.495Z,17.31
2023-05-24T12:38:18.584Z,17.19
2023-05-24T12:39:22.552Z,17.13
2023-05-24T12:40:29.795Z,17.13
2023-05-24T12:42:27.601Z,17.19
2023-05-24T12:43:31.448Z,17.00
2023-05-24T12:44:35.475Z,16.88
2023-05-24T12:46:11.969Z,16.88
2023-05-24T12:47:16.282Z,17.06
2023-05-24T12:48:20.777Z,17.25
2023-05-24T12:49:57.299Z,17.63
2023-05-24T12:51:01.349Z,17.81
2023-05-24T12:52:06.414Z,18.00
2023-05-24T12:53:43.642Z,18.44
2023-05-24T12:54:47.557Z,18.69
2023-05-24T12:55:51.603Z,18.94
2023-05-24T12:57:31.996Z,19.13
2023-05-24T12:58:36.135Z,19.19
2023-05-24T12:59:40.145Z,19.38
2023-05-24T13:00:12.721Z,19.38
2023-05-24T13:01:17.379Z,19.50
2023-05-24T13:02:22.228Z,19.81
2023-05-24T13:03:58.957Z,19.88
2023-05-24T13:05:03.028Z,20.00
2023-05-24T13:06:06.980Z,20.00
2023-05-24T13:07:43.033Z,20.13
2023-05-24T13:08:46.875Z,20.25
2023-05-24T13:09:50.922Z,20.38
2023-05-24T13:11:27.253Z,20.50
2023-05-24T13:12:31.324Z,20.44
2023-05-24T13:13:35.178Z,20.38
2023-05-24T13:15:11.173Z,20.06
2023-05-24T13:16:15.145Z,19.69
2023-05-24T13:17:19.918Z,19.44
2023-05-24T13:18:56.460Z,19.44
2023-05-24T13:20:00.264Z,19.56
2023-05-24T13:21:04.718Z,19.56
2023-05-24T13:22:42.942Z,19.38
2023-05-24T13:23:47.082Z,19.13
2023-05-24T13:24:51.410Z,18.56
2023-05-24T13:26:27.690Z,18.31
2023-05-24T13:27:35.490Z,17.94
2023-05-24T13:28:53.285Z,17.75
2023-05-24T13:31:25.911Z,17.50
2023-05-24T13:32:31.673Z,17.50
2023-05-24T13:33:39.869Z,17.44
2023-05-24T13:35:16.365Z,17.38
2023-05-24T13:36:20.741Z,17.31
2023-05-24T13:37:24.795Z,17.25
2023-05-24T13:40:11.156Z,17.13
2023-05-24T13:41:17.194Z,17.13
2023-05-24T13:42:54.697Z,17.06
2023-05-24T13:43:58.854Z,17.00
2023-05-24T13:45:03.267Z,16.94
2023-05-24T13:46:39.579Z,16.88
2023-05-24T13:47:44.357Z,16.88
2023-05-24T13:48:48.560Z,16.81
2023-05-24T13:50:25.247Z,16.69
2023-05-24T13:51:29.613Z,16.69
2023-05-24T13:52:39.153Z,16.63
2023-05-24T13:54:15.329Z,16.63
2023-05-24T13:55:19.126Z,16.56
2023-05-24T13:56:22.739Z,16.56
2023-05-24T13:58:06.458Z,16.50
2023-05-24T13:59:10.377Z,16.50
2023-05-24T14:00:12.596Z,16.50
2023-05-24T14:01:16.870Z,16.50
2023-05-24T14:02:21.660Z,16.50
2023-05-24T14:04:00.972Z,16.50
2023-05-24T14:05:24.329Z,16.50
2023-05-24T14:06:31.236Z,16.44
2023-05-24T14:08:07.566Z,16.31
2023-05-24T14:09:11.525Z,16.25
2023-05-24T14:10:16.652Z,16.19
2023-05-24T14:11:54.463Z,16.06
2023-05-24T14:13:11.262Z,16.06
2023-05-24T14:15:27.038Z,16.00
2023-05-24T14:17:04.981Z,16.06
2023-05-24T14:18:09.205Z,16.06
2023-05-24T14:19:13.191Z,16.06
2023-05-24T14:20:50.360Z,16.00
2023-05-24T14:21:54.551Z,16.00
2023-05-24T14:22:59.851Z,16.00
2023-05-24T14:24:36.386Z,16.00
2023-05-24T14:25:42.693Z,16.00
2023-05-24T14:26:47.483Z,16.00
2023-05-24T14:28:25.003Z,16.06
2023-05-24T14:29:31.985Z,16.19
2023-05-24T14:30:36.190Z,16.19
2023-05-24T14:32:14.055Z,16.19
2023-05-24T14:33:18.321Z,16.25
2023-05-24T14:34:22.326Z,16.25
2023-05-24T14:36:01.186Z,16.25
2023-05-24T14:37:06.142Z,16.19
2023-05-24T14:38:10.137Z,16.19
2023-05-24T14:39:46.628Z,16.19
2023-05-24T14:40:54.287Z,16.25
2023-05-24T14:41:58.235Z,16.25
2023-05-24T14:43:34.808Z,16.31
2023-05-24T14:44:38.693Z,16.31
2023-05-24T14:45:43.494Z,16.38
2023-05-24T14:47:21.401Z,16.44
2023-05-24T14:48:25.583Z,16.31
2023-05-24T14:49:30.794Z,16.25
2023-05-24T14:51:07.228Z,16.19
2023-05-24T14:52:11.630Z,16.19
2023-05-24T14:53:15.589Z,16.19
2023-05-24T14:54:52.383Z,16.19
2023-05-24T14:55:56.222Z,16.25
2023-05-24T14:57:00.823Z,16.25
2023-05-24T14:58:36.898Z,16.25
2023-05-24T14:59:42.583Z,16.25
2023-05-24T15:00:12.211Z,16.25
2023-05-24T15:01:21.557Z,16.31
2023-05-24T15:02:25.835Z,16.38
2023-05-24T15:04:03.709Z,16.25
2023-05-24T15:05:07.724Z,16.31
2023-05-24T15:06:12.440Z,16.25
2023-05-24T15:07:49.230Z,16.31
2023-05-24T15:08:53.198Z,16.25
2023-05-24T15:09:57.829Z,16.31
2023-05-24T15:11:35.330Z,16.31
2023-05-24T15:12:39.586Z,16.19
2023-05-24T15:13:43.320Z,16.19
2023-05-24T15:15:20.782Z,16.13
2023-05-24T15:16:26.917Z,16.19
2023-05-24T15:17:31.290Z,16.13
2023-05-24T15:19:07.947Z,16.13
2023-05-24T15:20:11.521Z,16.19
2023-05-24T15:21:17.066Z,16.19
2023-05-24T15:22:53.650Z,16.25
2023-05-24T15:23:57.428Z,16.31
2023-05-24T15:25:01.735Z,16.38
2023-05-24T15:26:38.557Z,16.44
2023-05-24T15:27:42.354Z,16.38
2023-05-24T15:28:46.525Z,16.25
2023-05-24T15:30:23.146Z,16.31
2023-05-24T15:31:27.368Z,16.31
2023-05-24T15:32:31.446Z,16.31
2023-05-24T15:34:08.359Z,16.31
2023-05-24T15:35:15.935Z,16.31
2023-05-24T15:36:19.763Z,16.31
2023-05-24T15:37:55.924Z,16.25
2023-05-24T15:39:00.033Z,16.19
2023-05-24T15:40:05.092Z,16.25
2023-05-24T15:41:43.706Z,16.25
2023-05-24T15:42:47.792Z,16.25
2023-05-24T15:43:51.781Z,16.25
2023-05-24T15:45:28.305Z,16.31
2023-05-24T15:46:32.995Z,16.38
2023-05-24T15:47:37.900Z,16.38
2023-05-24T15:49:14.930Z,16.31
2023-05-24T15:50:28.567Z,16.31
2023-05-24T15:52:44.726Z,16.25
2023-05-24T15:54:20.708Z,16.31
2023-05-24T15:55:25.813Z,16.31
2023-05-24T15:56:29.769Z,16.31
2023-05-24T15:58:07.013Z,16.25
2023-05-24T15:59:11.015Z,16.25
2023-05-24T16:00:12.972Z,16.19
2023-05-24T16:01:17.484Z,16.13
2023-05-24T16:02:22.713Z,16.13
2023-05-24T16:04:00.033Z,16.06
2023-05-24T16:05:42.447Z,15.94
2023-05-24T16:06:46.775Z,15.88
2023-05-24T16:07:51.124Z,15.88
2023-05-24T16:09:27.756Z,15.81
2023-05-24T16:10:32.156Z,15.81
2023-05-24T16:11:36.464Z,15.81
2023-05-24T16:13:14.521Z,15.75
2023-05-24T16:14:18.348Z,15.69
2023-05-24T16:15:22.537Z,15.63
2023-05-24T16:16:59.985Z,15.63
2023-05-24T16:18:06.076Z,15.63
2023-05-24T16:19:11.576Z,15.56
2023-05-24T16:20:48.517Z,15.50
2023-05-24T16:21:52.772Z,15.44